Time;durP1;ratioP1;P1;durP2;ratioP2;P2;SDS_P1;SDS_P2;PMS_P1;PMS_P2;Temp;Humidity;BMP_temperature;BMP_pressure;BME280_temperature;BME280_humidity;BME280_pressure;Samples;Min_cycle;Max_cycle;Signal;HPM_P1;HPM_P2
2022/03/28 00:00:30;;;;;;;11.00;5.40;;;;;;;4.68;37.70;97637.56;108057;1269;33403;-74
2022/03/28 00:03:12;;;;;;;6.80;2.50;;;;;;;4.76;37.67;97635.08;108039;1270;32893;-75
2022/03/28 00:05:43;;;;;;;8.10;4.70;;;;;;;4.78;37.57;97628.27;108034;1270;42222;-74
2022/03/28 00:08:12;;;;;;;;;;;;;;;4.84;37.35;97629.75;108063;1271;31344;-74
2022/03/28 00:10:43;;;;;;;5.80;2.70;;;;;;;4.94;37.00;97628.48;107947;1272;42880;-74
2022/03/28 00:13:12;;;;;;;;;;;;;;;5.01;36.89;97624.08;108025;1270;35824;-74
2022/03/28 00:15:43;;;;;;;6.50;3.60;;;;;;;5.07;36.74;97620.51;108027;1271;31146;-74
2022/03/28 00:18:14;;;;;;;7.60;3.60;;;;;;;5.16;36.48;97620.15;108077;1271;32550;-74
2022/03/28 00:20:46;;;;;;;8.20;4.50;;;;;;;5.30;36.24;97615.61;108001;1271;40779;-74
2022/03/28 00:23:18;;;;;;;4.90;2.70;;;;;;;5.40;36.17;97611.70;107993;1271;37589;-74
2022/03/28 00:25:49;;;;;;;7.10;3.10;;;;;;;5.44;35.73;97607.43;108015;1271;33851;-74
2022/03/28 00:28:20;;;;;;;7.80;3.30;;;;;;;5.47;35.48;97601.36;108032;1271;44313;-74
2022/03/28 00:30:51;;;;;;;6.90;3.40;;;;;;;5.51;35.46;97598.13;108043;1270;31773;-73
2022/03/28 00:33:22;;;;;;;6.20;2.80;;;;;;;5.51;35.33;97594.17;108014;1270;33502;-74
2022/03/28 00:35:53;;;;;;;8.10;3.60;;;;;;;5.51;35.35;97590.85;107837;1271;32400;-74
2022/03/28 00:38:24;;;;;;;7.10;3.60;;;;;;;5.44;35.24;97581.86;108024;1271;42375;-74
2022/03/28 00:40:55;;;;;;;4.20;2.20;;;;;;;5.41;35.36;97580.02;108045;1271;26781;-73
2022/03/28 00:43:24;;;;;;;;;;;;;;;5.39;35.40;97571.58;108064;1270;41641;-73
2022/03/28 00:45:55;;;;;;;7.20;3.40;;;;;;;5.39;35.54;97571.02;108000;1270;39507;-73
2022/03/28 00:48:27;;;;;;;7.60;3.60;;;;;;;5.28;35.84;97570.29;108058;1271;39949;-74
2022/03/28 00:50:58;;;;;;;8.20;4.10;;;;;;;5.13;36.35;97572.48;108001;1271;40950;-73
2022/03/28 00:53:34;;;;;;;7.60;2.60;;;;;;;5.02;36.59;97572.99;108108;1271;45561;-73
2022/03/28 00:56:05;;;;;;;10.50;4.50;;;;;;;4.98;36.68;97563.96;108086;1271;33208;-73
2022/03/28 00:58:36;;;;;;;7.60;3.40;;;;;;;4.95;36.86;97567.55;108094;1271;29593;-73
2022/03/28 01:01:09;;;;;;;8.20;4.30;;;;;;;5.00;36.52;97573.47;108085;1271;34205;-73
2022/03/28 01:03:40;;;;;;;6.50;3.10;;;;;;;5.10;36.50;97567.42;108072;1271;28296;-73
2022/03/28 01:06:12;;;;;;;7.70;4.00;;;;;;;5.15;36.20;97565.87;108040;1270;37185;-73
2022/03/28 01:08:43;;;;;;;5.60;3.30;;;;;;;5.15;36.29;97575.27;107998;1270;43906;-74
2022/03/28 01:11:14;;;;;;;7.00;4.10;;;;;;;5.12;36.43;97569.42;108004;1271;45728;-74
2022/03/28 01:13:46;;;;;;;6.10;3.00;;;;;;;5.15;36.16;97570.55;108037;1271;42153;-74
2022/03/28 01:16:17;;;;;;;7.30;4.00;;;;;;;5.24;36.02;97563.87;108048;1270;42208;-74
2022/03/28 01:18:49;;;;;;;;;;;;;;;5.24;35.94;97562.77;108033;1270;41897;-74
2022/03/28 01:21:20;;;;;;;8.40;4.20;;;;;;;5.19;36.10;97558.66;107977;1270;42246;-73
2022/03/28 01:23:52;;;;;;;3.90;2.30;;;;;;;5.16;36.07;97562.75;108072;1270;27540;-74
2022/03/28 01:26:22;;;;;;;4.70;2.70;;;;;;;5.17;36.04;97564.55;107923;1274;42264;-73
2022/03/28 01:28:54;;;;;;;5.60;3.00;;;;;;;5.17;35.90;97560.09;107984;1270;50834;-74
2022/03/28 01:31:24;;;;;;;7.00;3.00;;;;;;;5.18;35.94;97553.45;108031;1270;39952;-74
2022/03/28 01:33:55;;;;;;;7.10;3.40;;;;;;;5.20;35.80;97547.13;108008;1270;39236;-74
2022/03/28 01:36:30;;;;;;;9.20;3.90;;;;;;;5.23;35.81;97556.12;108055;1270;41056;-73
2022/03/28 01:39:00;;;;;;;8.20;4.10;;;;;;;5.22;35.91;97552.25;108029;1270;41268;-74
2022/03/28 01:41:31;;;;;;;9.20;3.90;;;;;;;5.14;36.21;97545.17;108055;1270;34042;-74
2022/03/28 01:44:00;;;;;;;;;;;;;;;5.02;36.30;97543.13;108015;1270;38287;-73
2022/03/28 01:46:31;;;;;;;4.70;2.10;;;;;;;4.92;36.28;97544.17;108052;1270;38438;-74
2022/03/28 01:49:00;;;;;;;;;;;;;;;4.90;36.36;97539.38;108013;1270;31929;-73
2022/03/28 01:51:38;;;;;;;7.30;3.70;;;;;;;4.78;36.94;97536.06;107939;1271;32258;-74
2022/03/28 01:54:09;;;;;;;6.60;3.10;;;;;;;4.62;37.18;97531.22;108024;1270;39094;-74
2022/03/28 01:56:41;;;;;;;8.20;3.90;;;;;;;4.54;37.28;97522.17;108053;1270;44265;-74
2022/03/28 01:59:13;;;;;;;5.20;3.10;;;;;;;4.51;37.49;97515.39;107979;1270;44788;-74
2022/03/28 02:01:44;;;;;;;4.90;2.80;;;;;;;4.44;37.73;97516.73;108031;1270;27591;-75
2022/03/28 02:04:15;;;;;;;6.50;3.10;;;;;;;4.36;37.88;97515.84;108084;1268;40175;-74
2022/03/28 02:06:45;;;;;;;6.10;2.40;;;;;;;4.31;38.03;97517.38;107965;1270;40557;-73
2022/03/28 02:09:14;;;;;;;;;;;;;;;4.26;38.28;97515.69;108024;1270;37976;-73
2022/03/28 02:11:45;;;;;;;5.40;2.50;;;;;;;4.23;38.21;97514.75;108017;1270;38758;-74
2022/03/28 02:14:16;;;;;;;6.90;3.50;;;;;;;4.19;38.43;97510.16;107995;1271;40324;-74
2022/03/28 02:16:47;;;;;;;6.70;3.50;;;;;;;4.13;38.44;97508.33;108055;1270;27175;-73
2022/03/28 02:19:17;;;;;;;6.50;3.50;;;;;;;4.12;38.45;97509.02;108052;1270;41296;-73
2022/03/28 02:21:48;;;;;;;5.20;2.90;;;;;;;4.11;38.51;97504.16;107978;1270;41421;-74
2022/03/28 02:24:19;;;;;;;7.30;3.90;;;;;;;4.12;38.59;97502.45;108058;1270;38659;-74
2022/03/28 02:26:50;;;;;;;3.80;2.60;;;;;;;4.11;38.72;97503.55;107994;1270;50555;-74
2022/03/28 02:29:21;;;;;;;7.00;3.50;;;;;;;4.08;38.75;97499.65;107954;1271;35228;-74
2022/03/28 02:31:52;;;;;;;6.70;3.10;;;;;;;4.01;39.03;97497.64;108082;1270;46651;-73
2022/03/28 02:34:23;;;;;;;3.70;2.10;;;;;;;3.92;39.31;97497.76;108049;1270;33878;-74
2022/03/28 02:36:54;;;;;;;5.10;2.30;;;;;;;3.85;39.54;97489.73;107999;1270;42372;-74
2022/03/28 02:39:25;;;;;;;6.10;3.00;;;;;;;3.83;39.72;97492.87;108004;1270;42121;-74
2022/03/28 02:41:56;;;;;;;6.10;3.10;;;;;;;3.83;39.70;97488.35;108015;1270;41776;-73
2022/03/28 02:44:26;;;;;;;9.00;3.10;;;;;;;3.86;39.60;97490.14;108014;1270;43740;-74
2022/03/28 02:46:57;;;;;;;10.90;4.30;;;;;;;3.87;39.56;97487.52;108006;1270;42343;-74
2022/03/28 02:49:28;;;;;;;6.60;3.70;;;;;;;3.89;39.56;97486.08;108011;1270;44979;-73
2022/03/28 02:51:59;;;;;;;10.00;3.90;;;;;;;3.92;39.58;97480.76;107939;1273;41884;-74
2022/03/28 02:54:30;;;;;;;6.90;3.40;;;;;;;3.96;39.55;97481.11;108008;1270;41852;-74
2022/03/28 02:57:01;;;;;;;5.50;2.50;;;;;;;4.09;39.23;97478.01;108116;1270;42964;-73
2022/03/28 02:59:32;;;;;;;6.60;2.90;;;;;;;4.19;38.99;97477.52;108028;1270;42041;-73
2022/03/28 03:02:03;;;;;;;6.40;2.90;;;;;;;4.28;38.73;97477.84;108005;1270;41088;-73
2022/03/28 03:04:35;;;;;;;6.30;3.50;;;;;;;4.38;38.64;97471.80;107943;1271;43144;-73
2022/03/28 03:07:06;;;;;;;5.40;3.70;;;;;;;4.49;38.44;97467.13;108016;1270;39683;-73
2022/03/28 03:09:37;;;;;;;4.80;2.80;;;;;;;4.54;38.39;97467.33;108039;1270;42901;-73
2022/03/28 03:12:07;;;;;;;;;;;;;;;4.59;38.31;97464.23;108065;1270;42506;-73
2022/03/28 03:14:38;;;;;;;6.90;2.60;;;;;;;4.60;38.29;97457.84;108161;1270;26887;-73
2022/03/28 03:17:09;;;;;;;5.90;2.50;;;;;;;4.59;38.38;97457.65;108106;1270;34685;-73
2022/03/28 03:19:41;;;;;;;4.80;2.90;;;;;;;4.60;38.40;97457.59;108015;1270;35148;-73
2022/03/28 03:22:14;;;;;;;4.40;2.00;;;;;;;4.69;38.22;97459.00;108070;1270;39380;-74
2022/03/28 03:24:45;;;;;;;7.40;3.20;;;;;;;4.81;37.89;97456.02;107926;1273;44326;-74
2022/03/28 03:27:16;;;;;;;3.90;1.90;;;;;;;4.95;37.74;97454.89;108054;1270;40585;-74
2022/03/28 03:29:48;;;;;;;6.10;3.30;;;;;;;4.98;37.63;97455.81;108038;1270;40195;-74
2022/03/28 03:32:19;;;;;;;7.50;3.70;;;;;;;4.99;37.74;97460.14;108069;1270;29998;-73
2022/03/28 03:34:51;;;;;;;5.20;2.60;;;;;;;4.96;37.70;97461.22;107902;1271;46883;-73
2022/03/28 03:37:22;;;;;;;6.50;3.40;;;;;;;4.95;37.86;97460.30;108016;1269;43231;-74
2022/03/28 03:39:53;;;;;;;7.90;3.50;;;;;;;4.97;37.87;97459.48;108135;1270;28391;-74
2022/03/28 03:42:24;;;;;;;7.00;3.00;;;;;;;4.85;38.34;97461.55;108006;1270;45303;-73
2022/03/28 03:44:54;;;;;;;6.70;3.50;;;;;;;4.70;38.46;97459.14;108070;1270;32142;-73
2022/03/28 03:47:25;;;;;;;5.90;3.00;;;;;;;4.66;38.28;97460.65;107931;1271;40545;-73
2022/03/28 03:49:56;;;;;;;7.40;3.60;;;;;;;4.73;38.31;97456.91;108094;1270;31879;-74
2022/03/28 03:52:27;;;;;;;6.10;3.00;;;;;;;4.78;38.48;97453.63;107992;1270;42318;-73
2022/03/28 03:54:58;;;;;;;6.80;3.00;;;;;;;4.69;38.95;97448.96;108075;1267;28286;-73
2022/03/28 03:57:29;;;;;;;6.30;2.80;;;;;;;4.38;40.00;97453.75;108035;1270;39676;-73
2022/03/28 03:59:59;;;;;;;6.20;3.40;;;;;;;4.11;40.35;97445.73;108025;1270;47926;-73
2022/03/28 04:02:30;;;;;;;5.60;2.90;;;;;;;4.15;40.44;97449.64;108055;1270;41840;-73
2022/03/28 04:05:01;;;;;;;6.30;3.20;;;;;;;4.26;40.43;97451.81;108004;1270;43552;-73
2022/03/28 04:07:32;;;;;;;7.60;3.20;;;;;;;4.30;40.25;97445.27;108046;1270;42758;-73
2022/03/28 04:10:04;;;;;;;6.30;3.70;;;;;;;4.43;40.00;97450.30;108072;1270;31134;-73
2022/03/28 04:12:34;;;;;;;5.90;3.30;;;;;;;4.49;39.89;97447.11;108044;1270;32635;-73
2022/03/28 04:15:07;;;;;;;7.10;3.40;;;;;;;4.56;39.84;97444.34;108042;1270;42632;-73
2022/03/28 04:17:44;;;;;;;5.80;3.50;;;;;;;4.59;39.73;97446.45;108019;1270;40603;-73
2022/03/28 04:20:16;;;;;;;6.30;3.60;;;;;;;4.61;39.62;97446.51;108020;1270;41291;-74
2022/03/28 04:22:47;;;;;;;6.10;3.40;;;;;;;4.58;39.55;97446.55;107968;1270;44760;-74
2022/03/28 04:25:18;;;;;;;5.60;2.30;;;;;;;4.54;39.68;97442.92;108045;1270;29911;-74
2022/03/28 04:27:49;;;;;;;6.10;2.70;;;;;;;4.50;39.56;97443.27;108032;1270;31011;-73
2022/03/28 04:30:21;;;;;;;8.20;4.30;;;;;;;4.52;39.65;97440.64;107929;1271;32274;-73
2022/03/28 04:32:52;;;;;;;23.00;12.30;;;;;;;4.48;39.81;97438.36;108105;1270;42638;-73
2022/03/28 04:35:22;;;;;;;16.20;9.80;;;;;;;4.35;40.14;97435.12;108004;1270;40244;-73
2022/03/28 04:37:53;;;;;;;5.60;2.20;;;;;;;4.28;40.36;97434.39;108074;1270;36403;-73
2022/03/28 04:40:25;;;;;;;3.60;2.00;;;;;;;4.36;40.42;97432.92;108105;1270;41545;-73
2022/03/28 04:42:56;;;;;;;5.20;3.00;;;;;;;4.49;40.36;97432.70;108030;1271;30018;-73
2022/03/28 04:45:28;;;;;;;3.00;2.10;;;;;;;4.65;40.22;97430.88;108053;1270;32091;-73
2022/03/28 04:47:59;;;;;;;6.30;2.30;;;;;;;4.78;39.97;97422.67;108032;1270;32840;-73
2022/03/28 04:50:31;;;;;;;6.80;3.50;;;;;;;4.97;39.89;97420.94;107990;1269;45261;-73
2022/03/28 04:53:02;;;;;;;5.20;2.80;;;;;;;5.21;39.52;97419.24;108062;1270;34127;-73
2022/03/28 04:55:35;;;;;;;5.20;3.00;;;;;;;5.47;39.16;97421.54;108083;1270;34872;-73
2022/03/28 04:58:07;;;;;;;6.30;3.20;;;;;;;5.82;38.70;97418.27;108000;1270;35273;-73
2022/03/28 05:00:38;;;;;;;5.70;3.20;;;;;;;6.12;38.24;97416.26;108104;1270;29870;-73
2022/03/28 05:03:10;;;;;;;6.10;2.70;;;;;;;6.35;37.81;97414.34;108198;1270;31979;-74
2022/03/28 05:05:39;;;;;;;;;;;;;;;6.51;37.31;97415.41;107956;1273;38071;-74
2022/03/28 05:08:11;;;;;;;9.60;3.50;;;;;;;6.75;37.17;97417.73;108107;1270;46669;-73
2022/03/28 05:10:43;;;;;;;7.40;3.60;;;;;;;7.06;36.78;97415.42;108187;1270;28831;-73
2022/03/28 05:13:14;;;;;;;6.50;3.50;;;;;;;7.27;36.47;97410.70;108141;1270;29374;-74
2022/03/28 05:15:44;;;;;;;6.30;3.20;;;;;;;7.45;36.10;97410.69;108086;1270;34182;-74
2022/03/28 05:18:16;;;;;;;6.50;3.60;;;;;;;7.66;35.82;97416.52;108056;1270;29100;-74
2022/03/28 05:20:46;;;;;;;6.80;3.90;;;;;;;7.94;35.71;97419.87;108018;1270;42451;-73
2022/03/28 05:23:17;;;;;;;6.60;3.60;;;;;;;8.30;35.21;97414.44;107986;1270;43540;-73
2022/03/28 05:25:48;;;;;;;5.10;3.10;;;;;;;8.65;35.10;97414.64;108032;1270;42388;-73
2022/03/28 05:28:19;;;;;;;6.20;3.60;;;;;;;8.99;34.46;97409.70;107937;1270;45629;-74
2022/03/28 05:30:51;;;;;;;5.90;3.00;;;;;;;9.42;33.95;97409.94;108087;1270;44250;-73
2022/03/28 05:33:22;;;;;;;6.30;3.40;;;;;;;9.64;33.63;97411.34;108097;1270;41971;-73
2022/03/28 05:35:54;;;;;;;5.30;3.60;;;;;;;10.07;33.14;97408.65;107930;1271;46628;-73
2022/03/28 05:38:25;;;;;;;7.10;4.20;;;;;;;10.40;32.77;97406.48;108060;1270;41308;-73
2022/03/28 05:40:57;;;;;;;6.20;3.30;;;;;;;10.90;32.85;97401.03;108101;1269;39336;-74
2022/03/28 05:43:29;;;;;;;4.90;3.20;;;;;;;11.48;31.92;97398.66;108021;1271;42525;-73
2022/03/28 05:46:00;;;;;;;6.30;4.00;;;;;;;11.66;31.17;97390.54;108080;1267;31464;-74
2022/03/28 05:48:31;;;;;;;6.20;3.70;;;;;;;11.90;31.35;97396.52;108014;1270;41370;-74
2022/03/28 05:51:02;;;;;;;6.20;3.80;;;;;;;12.36;30.65;97396.82;108058;1270;38324;-73
2022/03/28 05:53:33;;;;;;;6.10;3.90;;;;;;;12.71;30.20;97390.43;108034;1268;37738;-73
2022/03/28 05:56:05;;;;;;;5.50;3.80;;;;;;;13.07;29.39;97387.88;108066;1270;30103;-73
2022/03/28 05:58:38;;;;;;;6.80;3.90;;;;;;;13.31;29.25;97386.27;107998;1270;44076;-73
2022/03/28 06:01:10;;;;;;;7.60;4.00;;;;;;;13.43;28.93;97388.74;108106;1270;33530;-73
2022/03/28 06:03:40;;;;;;;7.90;4.40;;;;;;;13.58;28.48;97389.91;108070;1270;42616;-73
2022/03/28 06:06:12;;;;;;;6.60;4.20;;;;;;;13.97;28.37;97392.58;108168;1270;32934;-74
2022/03/28 06:08:43;;;;;;;6.70;3.90;;;;;;;14.33;27.65;97384.34;108084;1270;32016;-75
2022/03/28 06:11:14;;;;;;;5.60;4.20;;;;;;;14.23;27.34;97391.54;107984;1270;43552;-74
2022/03/28 06:13:45;;;;;;;6.70;3.80;;;;;;;14.24;27.06;97389.08;108100;1270;34721;-74
2022/03/28 06:16:16;;;;;;;7.80;4.70;;;;;;;14.15;27.21;97389.44;108055;1270;39864;-74
2022/03/28 06:18:47;;;;;;;6.20;3.70;;;;;;;14.42;27.34;97384.58;108085;1270;40860;-74
2022/03/28 06:21:18;;;;;;;6.20;4.20;;;;;;;14.51;27.05;97384.02;108032;1270;40792;-74
2022/03/28 06:23:49;;;;;;;6.90;3.90;;;;;;;14.50;27.13;97388.14;108094;1270;49476;-74
2022/03/28 06:26:20;;;;;;;7.50;4.60;;;;;;;14.90;27.19;97373.94;107974;1270;40619;-74
2022/03/28 06:28:51;;;;;;;6.80;4.10;;;;;;;15.41;26.87;97369.66;108050;1270;41318;-73
2022/03/28 06:31:22;;;;;;;7.50;4.60;;;;;;;15.30;26.58;97375.26;108037;1270;45441;-73
2022/03/28 06:34:01;;;;;;;5.70;4.30;;;;;;;15.59;26.75;97372.64;107913;1272;29649;-74
2022/03/28 06:36:33;;;;;;;7.40;4.80;;;;;;;16.20;26.12;97373.93;108135;1270;31394;-74
2022/03/28 06:39:04;;;;;;;5.90;4.00;;;;;;;16.70;25.99;97367.84;108043;1270;41590;-74
2022/03/28 06:41:34;;;;;;;5.80;4.00;;;;;;;16.85;25.36;97368.73;108064;1270;40262;-74
2022/03/28 06:44:08;;;;;;;5.40;4.00;;;;;;;16.94;25.29;97364.58;107992;1270;44596;-73
2022/03/28 06:46:39;;;;;;;5.90;4.20;;;;;;;17.05;24.85;97370.34;108048;1270;33512;-74
2022/03/28 06:49:10;;;;;;;6.10;4.00;;;;;;;17.17;24.80;97367.79;108002;1270;43863;-74
2022/03/28 06:51:41;;;;;;;6.90;4.50;;;;;;;17.31;24.48;97365.27;108172;1270;34400;-74
2022/03/28 06:54:14;;;;;;;5.50;4.50;;;;;;;17.42;24.24;97363.95;108066;1269;39725;-74
2022/03/28 06:56:45;;;;;;;6.40;4.20;;;;;;;17.55;23.89;97361.98;108047;1270;41056;-75
2022/03/28 06:59:16;;;;;;;5.50;4.20;;;;;;;17.38;23.81;97353.70;107991;1270;42484;-74
2022/03/28 07:01:47;;;;;;;6.70;4.60;;;;;;;17.34;24.12;97356.73;108047;1270;43175;-74
2022/03/28 07:04:20;;;;;;;6.40;4.20;;;;;;;17.39;23.86;97355.92;108008;1270;40772;-74
2022/03/28 07:06:51;;;;;;;5.50;3.50;;;;;;;17.56;23.76;97351.02;107896;1273;35956;-74
2022/03/28 07:09:22;;;;;;;4.60;3.50;;;;;;;17.28;23.17;97346.35;107919;1271;35856;-74
2022/03/28 07:11:52;;;;;;;5.50;3.60;;;;;;;16.89;23.55;97353.22;107997;1270;38354;-74
2022/03/28 07:14:23;;;;;;;6.30;4.90;;;;;;;16.70;23.77;97347.88;108060;1269;37358;-74
2022/03/28 07:16:54;;;;;;;6.80;4.20;;;;;;;16.96;23.97;97351.16;108006;1270;51700;-74
2022/03/28 07:19:25;;;;;;;6.00;4.50;;;;;;;17.09;23.42;97342.23;108058;1270;38930;-74
2022/03/28 07:21:56;;;;;;;7.40;4.20;;;;;;;16.77;23.81;97347.00;108062;1270;41612;-74
2022/03/28 07:24:27;;;;;;;5.40;4.30;;;;;;;17.29;23.64;97341.94;107915;1273;39751;-74
2022/03/28 07:26:58;;;;;;;8.60;4.90;;;;;;;17.88;23.51;97337.21;108067;1270;31246;-74
2022/03/28 07:29:28;;;;;;;5.60;4.10;;;;;;;18.59;23.16;97328.56;108048;1270;47316;-74
2022/03/28 07:32:00;;;;;;;4.50;3.30;;;;;;;18.69;22.24;97319.52;108030;1270;36398;-74
2022/03/28 07:34:32;;;;;;;3.60;2.80;;;;;;;17.70;22.57;97320.96;108045;1270;41948;-74
2022/03/28 07:37:05;;;;;;;6.10;4.20;;;;;;;17.02;23.21;97318.29;108100;1270;41999;-74
2022/03/28 07:39:38;;;;;;;8.10;4.00;;;;;;;17.37;23.79;97321.88;108026;1270;36253;-74
2022/03/28 07:42:10;;;;;;;7.40;5.00;;;;;;;17.87;22.84;97316.23;108112;1270;32051;-74
2022/03/28 07:44:43;;;;;;;8.40;4.90;;;;;;;18.14;23.03;97306.28;108014;1271;31262;-74
2022/03/28 07:47:14;;;;;;;6.50;4.30;;;;;;;18.79;22.39;97299.20;108117;1270;38128;-75
2022/03/28 07:49:45;;;;;;;5.10;4.50;;;;;;;18.99;22.30;97296.58;108073;1270;40739;-74
2022/03/28 07:52:16;;;;;;;7.40;4.30;;;;;;;19.74;22.18;97289.96;108038;1270;42764;-75
2022/03/28 07:54:48;;;;;;;6.30;4.60;;;;;;;19.64;21.31;97294.36;107979;1270;40750;-75
2022/03/28 07:57:20;;;;;;;6.60;4.80;;;;;;;20.01;22.18;97291.44;108037;1270;40039;-74
2022/03/28 07:59:51;;;;;;;6.60;4.70;;;;;;;21.44;21.60;97288.05;108020;1270;48954;-75
2022/03/28 08:02:24;;;;;;;7.20;4.90;;;;;;;22.45;21.05;97281.61;108025;1270;46046;-74
2022/03/28 08:04:54;;;;;;;5.50;4.30;;;;;;;23.08;20.42;97273.32;107977;1270;41332;-75
2022/03/28 08:07:26;;;;;;;6.20;4.30;;;;;;;23.74;19.82;97266.66;107957;1270;40454;-74
2022/03/28 08:09:57;;;;;;;5.70;4.30;;;;;;;23.83;19.33;97268.58;108012;1270;41098;-74
2022/03/28 08:12:28;;;;;;;5.60;4.60;;;;;;;23.77;19.56;97264.09;108042;1270;41178;-75
2022/03/28 08:14:59;;;;;;;6.70;4.30;;;;;;;24.06;19.18;97263.66;107979;1270;40483;-74
2022/03/28 08:17:30;;;;;;;7.00;4.20;;;;;;;23.75;19.04;97254.45;108056;1270;35994;-74
2022/03/28 08:20:01;;;;;;;4.90;3.70;;;;;;;22.43;18.91;97252.70;108080;1270;36636;-73
2022/03/28 08:22:32;;;;;;;6.00;4.70;;;;;;;20.66;19.99;97251.70;108066;1270;30569;-74
2022/03/28 08:25:03;;;;;;;5.80;4.30;;;;;;;20.09;21.16;97248.48;108103;1270;40363;-74
2022/03/28 08:27:34;;;;;;;4.80;4.20;;;;;;;20.37;21.43;97245.20;108102;1269;42056;-74
2022/03/28 08:30:06;;;;;;;6.30;4.90;;;;;;;20.36;21.27;97242.30;108000;1270;42668;-74
2022/03/28 08:32:38;;;;;;;7.00;4.80;;;;;;;20.37;21.55;97236.04;108131;1270;44321;-73
2022/03/28 08:35:11;;;;;;;8.60;5.50;;;;;;;20.22;21.49;97225.70;108074;1270;39083;-73
2022/03/28 08:37:42;;;;;;;6.00;4.90;;;;;;;20.06;22.28;97231.80;108179;1270;42059;-73
2022/03/28 08:40:13;;;;;;;7.40;5.50;;;;;;;20.38;22.03;97224.61;108146;1270;31643;-73
2022/03/28 08:42:45;;;;;;;6.80;5.20;;;;;;;20.30;21.98;97223.48;108080;1270;26001;-74
2022/03/28 08:45:16;;;;;;;8.90;5.60;;;;;;;20.53;22.19;97224.43;108109;1269;30673;-74
2022/03/28 08:47:51;;;;;;;7.40;4.70;;;;;;;20.40;21.63;97211.71;108070;1269;38111;-74
2022/03/28 08:50:22;;;;;;;8.80;4.40;;;;;;;19.86;22.68;97218.88;108095;1270;44797;-74
2022/03/28 08:52:53;;;;;;;6.10;4.80;;;;;;;20.05;22.56;97203.11;108082;1270;28823;-74
2022/03/28 08:55:24;;;;;;;8.90;4.50;;;;;;;20.21;22.44;97206.42;108060;1270;42812;-74
2022/03/28 08:57:55;;;;;;;6.40;4.50;;;;;;;20.30;23.20;97204.48;108110;1270;31865;-74
2022/03/28 09:00:26;;;;;;;7.10;5.00;;;;;;;20.89;22.87;97195.12;108044;1270;32231;-74
2022/03/28 09:02:59;;;;;;;5.20;3.20;;;;;;;20.95;22.57;97193.27;108085;1270;42410;-74
2022/03/28 09:05:35;;;;;;;7.70;4.60;;;;;;;20.40;22.42;97191.83;107997;1271;32863;-73
2022/03/28 09:08:08;;;;;;;6.10;3.70;;;;;;;19.93;22.73;97195.63;108096;1270;44895;-74
2022/03/28 09:10:44;;;;;;;6.90;3.60;;;;;;;19.21;23.42;97186.01;108142;1270;35381;-74
2022/03/28 09:13:18;;;;;;;7.70;4.30;;;;;;;18.68;23.85;97182.04;108056;1270;46593;-73
2022/03/28 09:15:56;;;;;;;8.60;4.00;;;;;;;18.06;24.64;97176.64;108014;1270;40970;-73
2022/03/28 09:18:28;;;;;;;7.20;4.50;;;;;;;17.56;25.41;97176.33;108126;1270;41774;-73
2022/03/28 09:21:01;;;;;;;7.80;5.10;;;;;;;17.38;26.04;97178.80;108068;1270;31946;-73
2022/03/28 09:23:39;;;;;;;6.40;3.90;;;;;;;17.25;26.23;97179.31;108049;1270;43411;-73
2022/03/28 09:26:13;;;;;;;8.30;4.30;;;;;;;16.52;26.77;97174.09;108104;1270;109935;-73
2022/03/28 09:28:49;;;;;;;9.20;4.70;;;;;;;16.05;27.60;97177.33;108105;1270;95639;-74
2022/03/28 09:31:27;;;;;;;5.90;3.50;;;;;;;16.28;27.88;97175.35;108038;1270;91071;-73
2022/03/28 09:34:04;;;;;;;8.00;4.50;;;;;;;16.37;28.00;97171.77;108017;1270;71331;-73
2022/03/28 09:36:44;;;;;;;7.60;4.50;;;;;;;16.38;28.00;97169.73;108148;1270;35960;-73
2022/03/28 09:39:17;;;;;;;;;;;;;;;16.39;28.10;97161.86;108093;1270;43130;-73
2022/03/28 09:42:00;;;;;;;6.40;3.40;;;;;;;16.29;28.06;97157.48;108190;1270;39992;-73
2022/03/28 09:44:43;;;;;;;7.20;4.60;;;;;;;16.00;28.18;97157.98;107958;1270;37708;-73
2022/03/28 09:47:18;;;;;;;7.60;4.00;;;;;;;16.33;28.45;97151.34;107984;1271;40951;-73
2022/03/28 09:49:52;;;;;;;6.60;4.50;;;;;;;16.42;27.88;97149.52;107964;1268;74485;-73
2022/03/28 09:52:26;;;;;;;5.70;3.10;;;;;;;16.26;28.23;97137.46;108147;1270;41214;-73
2022/03/28 09:54:59;;;;;;;5.40;3.50;;;;;;;16.22;28.07;97136.65;107982;1270;43294;-73
2022/03/28 09:57:32;;;;;;;7.50;4.00;;;;;;;16.34;28.33;97127.29;108082;1270;45045;-73
2022/03/28 10:00:13;;;;;;;8.20;3.90;;;;;;;16.35;28.48;97127.11;108058;1270;28780;-73
2022/03/28 10:02:44;;;;;;;6.60;4.70;;;;;;;16.46;28.20;97121.92;108031;1270;40487;-74
2022/03/28 10:05:17;;;;;;;7.70;4.40;;;;;;;16.40;28.17;97119.95;108013;1269;44707;-74
2022/03/28 10:07:50;;;;;;;6.10;4.10;;;;;;;16.72;28.27;97112.86;108120;1270;32084;-74
2022/03/28 10:10:22;;;;;;;5.70;3.80;;;;;;;16.93;27.99;97104.81;107929;1273;47213;-74
2022/03/28 10:12:53;;;;;;;6.90;4.00;;;;;;;17.17;28.16;97097.39;108117;1270;46097;-74
2022/03/28 10:15:24;;;;;;;7.80;4.90;;;;;;;17.22;27.92;97097.89;108139;1270;36585;-74
2022/03/28 10:17:55;;;;;;;7.20;4.30;;;;;;;17.41;28.25;97088.91;107898;1271;43462;-74
2022/03/28 10:20:26;;;;;;;8.30;4.50;;;;;;;17.58;27.78;97087.70;108071;1270;42456;-74
2022/03/28 10:22:59;;;;;;;6.40;4.30;;;;;;;17.39;27.41;97089.96;108088;1270;39245;-74
2022/03/28 10:25:34;;;;;;;6.30;4.10;;;;;;;17.52;27.40;97087.48;108077;1270;43706;-74
2022/03/28 10:28:05;;;;;;;5.90;3.90;;;;;;;17.57;26.91;97087.12;108115;1270;47265;-74
2022/03/28 10:30:36;;;;;;;7.20;3.80;;;;;;;17.49;27.09;97084.23;108118;1270;30864;-74
2022/03/28 10:33:14;;;;;;;5.50;3.70;;;;;;;17.55;27.26;97082.57;108139;1270;32554;-74
2022/03/28 10:35:58;;;;;;;6.30;4.20;;;;;;;17.73;27.77;97079.65;108142;1270;32408;-75
2022/03/28 10:38:30;;;;;;;9.10;4.30;;;;;;;17.84;27.00;97072.39;108207;1270;33452;-74
2022/03/28 10:41:03;;;;;;;6.30;4.00;;;;;;;17.79;27.04;97070.58;108103;1270;43198;-74
2022/03/28 10:43:35;;;;;;;6.40;3.80;;;;;;;17.83;27.20;97058.63;108057;1270;35284;-74
2022/03/28 10:46:10;;;;;;;5.40;3.50;;;;;;;17.97;26.95;97051.83;108062;1270;45914;-74
2022/03/28 10:48:42;;;;;;;6.50;3.50;;;;;;;17.82;27.21;97044.27;108240;1270;33766;-75
2022/03/28 10:51:15;;;;;;;6.80;3.80;;;;;;;17.65;27.05;97040.64;108141;1270;32220;-74
2022/03/28 10:53:47;;;;;;;7.80;3.70;;;;;;;17.42;27.57;97035.01;108026;1270;38165;-75
2022/03/28 10:56:21;;;;;;;6.10;3.70;;;;;;;17.43;27.26;97022.98;108041;1270;60429;-74
2022/03/28 10:58:54;;;;;;;8.90;4.60;;;;;;;17.35;27.84;97019.81;108014;1270;33232;-74
2022/03/28 11:01:31;;;;;;;6.40;4.00;;;;;;;17.63;28.16;97017.95;108104;1270;27576;-74
2022/03/28 11:04:05;;;;;;;8.00;4.20;;;;;;;17.92;27.97;97017.96;108072;1270;46559;-74
2022/03/28 11:06:59;;;;;;;5.70;3.70;;;;;;;17.99;27.67;97016.23;107993;1270;94188;-74
2022/03/28 11:09:48;;;;;;;4.60;3.60;;;;;;;18.07;27.47;97007.39;108060;1270;46725;-74
2022/03/28 11:12:28;;;;;;;6.00;3.90;;;;;;;18.11;27.78;97007.92;108096;1270;46295;-74
2022/03/28 11:15:01;;;;;;;5.80;3.20;;;;;;;18.28;27.50;97000.71;107946;1270;43566;-74
2022/03/28 11:17:36;;;;;;;7.30;3.50;;;;;;;18.32;27.32;97000.05;107986;1270;33447;-74
2022/03/28 11:20:18;;;;;;;6.00;3.90;;;;;;;18.47;27.50;96995.91;108002;1270;42218;-74
2022/03/28 11:22:55;;;;;;;4.90;3.00;;;;;;;18.55;26.39;96984.96;108062;1270;40464;-75
2022/03/28 11:25:42;;;;;;;5.60;2.90;;;;;;;18.39;26.25;96978.33;107941;1270;44990;-75
2022/03/28 11:28:25;;;;;;;4.40;2.50;;;;;;;18.35;26.08;96975.40;108174;1269;41839;-75
2022/03/28 11:31:03;;;;;;;3.70;2.40;;;;;;;18.15;26.08;96975.15;108081;1270;31789;-74
2022/03/28 11:33:37;;;;;;;3.10;2.70;;;;;;;18.13;26.20;96966.30;108147;1270;34826;-74
2022/03/28 11:36:11;;;;;;;2.60;1.50;;;;;;;18.18;26.20;96966.28;108118;1270;42771;-75
2022/03/28 11:38:44;;;;;;;3.30;1.50;;;;;;;18.11;25.62;96961.09;108092;1270;31810;-74
2022/03/28 11:41:17;;;;;;;3.10;1.80;;;;;;;18.04;25.59;96958.20;107905;1273;40164;-76
2022/03/28 11:43:50;;;;;;;5.00;2.70;;;;;;;18.07;25.54;96950.42;108102;1270;30446;-74
2022/03/28 11:46:24;;;;;;;4.30;2.70;;;;;;;18.23;25.64;96946.50;107924;1272;33786;-75
2022/03/28 11:48:58;;;;;;;3.10;2.00;;;;;;;18.29;25.52;96926.02;108109;1270;43352;-75
2022/03/28 11:51:31;;;;;;;2.80;2.00;;;;;;;18.30;25.61;96927.55;108094;1270;42090;-75
2022/03/28 11:54:05;;;;;;;2.80;1.70;;;;;;;18.30;25.43;96923.35;108055;1270;35323;-75